createdAt,value
2022-09-25T00:03:52.942Z,8.13
2022-09-25T00:08:56.819Z,7.95
2022-09-25T00:14:02.162Z,7.75
2022-09-25T00:19:22.603Z,7.00
2022-09-25T00:24:25.310Z,7.72
2022-09-25T00:29:30.466Z,9.02
2022-09-25T00:34:33.362Z,8.30
2022-09-25T00:39:35.996Z,13.43
2022-09-25T00:44:56.439Z,11.77
2022-09-25T00:49:59.970Z,13.35
2022-09-25T00:55:05.264Z,10.45
2022-09-25T01:00:12.655Z,11.15
2022-09-25T01:05:17.752Z,8.27
2022-09-25T01:10:21.774Z,7.72
2022-09-25T01:15:30.718Z,7.63
2022-09-25T01:20:56.365Z,7.50
2022-09-25T01:26:15.445Z,10.25
2022-09-25T01:31:26.179Z,7.63
2022-09-25T01:36:30.661Z,6.95
2022-09-25T01:41:36.925Z,5.70
2022-09-25T01:46:44.025Z,7.95
2022-09-25T01:51:49.443Z,6.60
2022-09-25T01:56:56.670Z,8.48
2022-09-25T02:02:02.650Z,7.40
2022-09-25T02:07:09.947Z,7.18
2022-09-25T02:12:15.323Z,5.82
2022-09-25T02:17:38.106Z,8.90
2022-09-25T02:22:40.751Z,8.10
2022-09-25T02:27:43.867Z,6.65
2022-09-25T02:32:47.799Z,9.20
2022-09-25T02:37:50.427Z,7.68
2022-09-25T02:42:59.626Z,5.63
2022-09-25T02:48:10.345Z,6.68
2022-09-25T02:53:24.032Z,5.82
2022-09-25T02:58:29.675Z,6.53
2022-09-25T03:03:34.773Z,6.00
2022-09-25T03:08:39.488Z,6.10
2022-09-25T03:13:42.689Z,6.75
2022-09-25T03:18:46.766Z,6.97
2022-09-25T03:23:56.884Z,7.30
2022-09-25T03:29:02.069Z,7.03
2022-09-25T03:34:06.115Z,7.95
2022-09-25T03:39:10.686Z,7.07
2022-09-25T03:44:13.581Z,6.85
2022-09-25T03:49:17.554Z,6.53
2022-09-25T03:54:20.261Z,7.57
2022-09-25T03:59:22.896Z,6.35
2022-09-25T04:04:26.886Z,6.72
2022-09-25T04:09:29.545Z,6.72
2022-09-25T04:14:32.114Z,6.18
2022-09-25T04:19:36.017Z,6.82
2022-09-25T04:24:50.660Z,8.13
2022-09-25T04:29:53.264Z,6.82
2022-09-25T04:34:58.277Z,7.00
2022-09-25T04:40:00.908Z,8.52
2022-09-25T04:45:04.025Z,6.70
2022-09-25T04:50:09.057Z,7.97
2022-09-25T04:55:11.891Z,7.88
2022-09-25T05:00:17.089Z,7.40
2022-09-25T05:05:21.285Z,7.88
2022-09-25T05:10:27.224Z,7.38
2022-09-25T05:15:31.643Z,7.18
2022-09-25T05:20:36.280Z,7.72
2022-09-25T05:25:39.212Z,8.38
2022-09-25T05:30:43.547Z,8.98
2022-09-25T05:35:48.522Z,9.75
2022-09-25T05:40:51.424Z,8.75
2022-09-25T05:45:55.482Z,9.48
2022-09-25T05:50:59.831Z,8.30
2022-09-25T05:56:03.785Z,8.30
2022-09-25T06:01:07.532Z,7.88
2022-09-25T06:06:11.470Z,7.28
2022-09-25T06:11:14.081Z,8.32
2022-09-25T06:16:19.327Z,8.95
2022-09-25T06:21:23.918Z,11.30
2022-09-25T06:26:29.636Z,9.18
2022-09-25T06:31:32.720Z,8.77
2022-09-25T06:36:36.832Z,8.90
2022-09-25T06:41:40.142Z,8.95
2022-09-25T06:46:45.081Z,9.52
2022-09-25T06:51:50.947Z,9.45
2022-09-25T06:56:53.621Z,12.48
2022-09-25T07:02:16.649Z,13.02
2022-09-25T07:07:21.104Z,10.52
2022-09-25T07:12:23.953Z,9.88
2022-09-25T07:17:28.791Z,11.05
2022-09-25T07:22:36.156Z,13.07
2022-09-25T07:27:38.959Z,11.82
2022-09-25T07:32:44.843Z,11.40
2022-09-25T07:37:48.816Z,11.45
2022-09-25T07:42:52.041Z,13.70
2022-09-25T07:47:57.110Z,11.93
2022-09-25T07:53:01.501Z,13.35
2022-09-25T07:58:04.337Z,13.68
2022-09-25T08:03:07.307Z,12.25
2022-09-25T08:08:11.305Z,13.93
2022-09-25T08:13:14.270Z,11.48
2022-09-25T08:18:16.862Z,12.10
2022-09-25T08:23:20.805Z,13.52
2022-09-25T08:28:23.489Z,12.60
2022-09-25T08:33:26.414Z,18.65
2022-09-25T08:38:32.699Z,12.80
2022-09-25T08:43:37.610Z,12.52
2022-09-25T08:49:02.183Z,11.90
2022-09-25T08:54:06.654Z,12.50
2022-09-25T08:59:21.276Z,16.88
2022-09-25T09:04:27.757Z,13.50
2022-09-25T09:09:35.950Z,15.75
2022-09-25T09:14:43.862Z,14.50
2022-09-25T09:19:48.342Z,14.02
2022-09-25T09:24:56.412Z,15.13
2022-09-25T09:30:11.230Z,14.23
2022-09-25T09:35:23.969Z,13.75
2022-09-25T09:40:47.138Z,12.90
2022-09-25T09:45:53.990Z,13.85
2022-09-25T09:51:00.982Z,13.38
2022-09-25T09:56:09.341Z,12.80
2022-09-25T10:01:36.695Z,13.65
2022-09-25T10:06:39.301Z,12.95
2022-09-25T10:11:45.570Z,13.60
2022-09-25T10:16:48.684Z,15.48
2022-09-25T10:21:54.350Z,16.13
2022-09-25T10:27:13.033Z,14.55
2022-09-25T10:32:17.252Z,12.93
2022-09-25T10:37:22.210Z,11.95
2022-09-25T10:42:47.324Z,11.68
2022-09-25T10:48:08.465Z,12.02
2022-09-25T10:53:28.195Z,11.73
2022-09-25T10:58:36.846Z,12.32
2022-09-25T11:03:58.134Z,12.13
2022-09-25T11:09:11.603Z,13.10
2022-09-25T11:14:28.646Z,10.35
2022-09-25T11:19:33.087Z,11.18
2022-09-25T11:24:50.624Z,9.82
2022-09-25T11:30:03.086Z,8.40
2022-09-25T11:35:19.728Z,7.00
2022-09-25T11:40:49.883Z,6.90
2022-09-25T11:45:59.613Z,5.75
2022-09-25T11:51:09.537Z,7.28
2022-09-25T11:56:23.876Z,7.97
2022-09-25T12:01:34.290Z,9.30
2022-09-25T12:06:49.414Z,8.57
2022-09-25T12:11:56.341Z,7.47
2022-09-25T12:17:04.673Z,8.13
2022-09-25T12:22:11.470Z,7.43
2022-09-25T12:27:26.363Z,6.28
2022-09-25T12:32:40.691Z,7.20
2022-09-25T12:37:46.610Z,10.82
2022-09-25T12:42:54.902Z,7.20
2022-09-25T12:48:12.950Z,6.90
2022-09-25T12:53:30.898Z,7.50
2022-09-25T12:58:45.652Z,6.50
2022-09-25T13:03:54.563Z,6.85
2022-09-25T13:09:03.288Z,6.65
2022-09-25T13:14:09.354Z,5.78
2022-09-25T13:19:26.463Z,5.90
2022-09-25T13:24:29.299Z,6.22
2022-09-25T13:29:38.773Z,6.70
2022-09-25T13:34:43.219Z,6.95
2022-09-25T13:40:04.916Z,6.80
2022-09-25T13:45:36.222Z,7.10
2022-09-25T13:50:51.706Z,6.70
2022-09-25T13:56:25.772Z,6.10
2022-09-25T14:01:35.386Z,5.20
2022-09-25T14:06:41.581Z,5.85
2022-09-25T14:11:52.620Z,7.03
2022-09-25T14:16:58.382Z,6.90
2022-09-25T14:22:04.284Z,6.70
2022-09-25T14:27:19.835Z,5.45
2022-09-25T14:32:54.563Z,5.30
2022-09-25T14:38:15.114Z,5.60
2022-09-25T14:43:40.242Z,4.90
2022-09-25T14:48:46.060Z,5.03
2022-09-25T14:53:53.967Z,5.72
2022-09-25T14:58:59.028Z,5.55
2022-09-25T15:04:04.335Z,4.18
2022-09-25T15:09:29.059Z,4.47
2022-09-25T15:14:31.647Z,5.15
2022-09-25T15:19:36.458Z,4.32
2022-09-25T15:24:41.588Z,5.00
2022-09-25T15:29:46.374Z,7.40
2022-09-25T15:34:49.145Z,4.35
2022-09-25T15:39:54.873Z,4.38
2022-09-25T15:44:58.387Z,4.13
2022-09-25T15:50:01.331Z,6.00
2022-09-25T15:55:08.174Z,4.43
2022-09-25T16:00:36.194Z,3.97
2022-09-25T16:05:45.380Z,4.75
2022-09-25T16:10:50.404Z,4.47
2022-09-25T16:15:54.465Z,3.92
2022-09-25T16:20:59.378Z,3.58
2022-09-25T16:26:03.701Z,3.20
2022-09-25T16:31:08.314Z,3.30
2022-09-25T16:36:17.682Z,3.63
2022-09-25T16:41:23.094Z,4.55
2022-09-25T16:46:25.806Z,6.32
2022-09-25T16:51:30.006Z,3.75
2022-09-25T16:56:48.075Z,4.25
2022-09-25T17:01:53.153Z,4.32
2022-09-25T17:06:57.968Z,4.25
2022-09-25T17:12:07.271Z,4.72
2022-09-25T17:17:10.522Z,3.85
2022-09-25T17:22:13.278Z,4.95
2022-09-25T17:27:17.499Z,4.50
2022-09-25T17:32:20.135Z,5.88
2022-09-25T17:37:22.882Z,2.92
2022-09-25T17:42:27.698Z,4.05
2022-09-25T17:47:31.854Z,5.93
2022-09-25T17:52:34.421Z,4.18
2022-09-25T17:57:38.361Z,4.47
2022-09-25T18:02:41.037Z,4.03
2022-09-25T18:07:43.881Z,4.93
2022-09-25T18:12:48.247Z,4.80
2022-09-25T18:17:53.356Z,4.53
2022-09-25T18:22:56.542Z,5.05
2022-09-25T18:28:00.572Z,5.13
2022-09-25T18:33:03.200Z,4.28
2022-09-25T18:38:05.961Z,4.50
2022-09-25T18:43:10.661Z,4.88
2022-09-25T18:48:13.459Z,4.03
2022-09-25T18:53:16.568Z,4.43
2022-09-25T18:58:20.817Z,4.40
2022-09-25T19:03:23.609Z,4.75
2022-09-25T19:08:26.559Z,5.60
2022-09-25T19:13:30.586Z,5.38
2022-09-25T19:18:33.281Z,4.13
2022-09-25T19:23:36.292Z,7.47
2022-09-25T19:28:41.033Z,5.10
2022-09-25T19:33:44.099Z,5.00
2022-09-25T19:38:47.358Z,5.57
2022-09-25T19:43:53.811Z,5.10
2022-09-25T19:48:56.772Z,5.40
2022-09-25T19:53:59.556Z,7.25
2022-09-25T19:59:06.961Z,8.63
2022-09-25T20:04:17.174Z,5.50
2022-09-25T20:09:21.148Z,5.40
2022-09-25T20:14:26.236Z,6.15
2022-09-25T20:19:28.810Z,5.85
2022-09-25T20:24:31.365Z,7.63
2022-09-25T20:29:36.711Z,6.88
2022-09-25T20:34:39.356Z,5.82
2022-09-25T20:39:42.091Z,5.72
2022-09-25T20:44:46.216Z,5.93
2022-09-25T20:49:49.228Z,5.90
2022-09-25T20:54:51.850Z,6.32
2022-09-25T20:59:56.808Z,7.43
2022-09-25T21:04:59.738Z,6.45
2022-09-25T21:10:02.421Z,6.63
2022-09-25T21:15:07.580Z,8.35
2022-09-25T21:20:11.187Z,9.23
2022-09-25T21:25:14.319Z,6.32
2022-09-25T21:30:18.613Z,9.48
2022-09-25T21:35:21.704Z,6.32
2022-09-25T21:40:24.396Z,8.55
2022-09-25T21:45:28.475Z,7.20
2022-09-25T21:50:33.536Z,9.05
2022-09-25T21:55:36.507Z,5.93
2022-09-25T22:00:40.472Z,7.28
2022-09-25T22:05:43.092Z,6.75
2022-09-25T22:10:55.830Z,7.25
2022-09-25T22:16:05.094Z,7.63
2022-09-25T22:21:07.734Z,10.15
2022-09-25T22:26:11.152Z,10.55
2022-09-25T22:31:16.788Z,7.07
2022-09-25T22:36:19.632Z,7.65
2022-09-25T22:41:22.554Z,7.75
2022-09-25T22:46:26.790Z,7.00
2022-09-25T22:51:29.393Z,8.98
2022-09-25T22:56:33.154Z,8.70
2022-09-25T23:01:43.059Z,8.82
2022-09-25T23:06:45.794Z,10.27
2022-09-25T23:11:48.500Z,8.23
2022-09-25T23:16:54.080Z,9.38
2022-09-25T23:21:56.727Z,10.75
2022-09-25T23:26:59.323Z,9.93
2022-09-25T23:32:07.920Z,7.18
2022-09-25T23:37:10.670Z,8.77
2022-09-25T23:42:13.244Z,9.27
2022-09-25T23:47:17.303Z,8.90
2022-09-25T23:52:19.955Z,9.25
2022-09-25T23:57:22.574Z,7.70
